Time;durP1;ratioP1;P1;durP2;ratioP2;P2;SDS_P1;SDS_P2;PMS_P1;PMS_P2;Temp;Humidity;BMP_temperature;BMP_pressure;BME280_temperature;BME280_humidity;BME280_pressure;Samples;Min_cycle;Max_cycle;Signal;HPM_P1;HPM_P2
2021/09/19 00:00:14;;;;;;;3.38;2.92;;;17.20;61.10;;;;;;5053442;28;20025;-73
2021/09/19 00:02:40;;;;;;;4.35;3.25;;;17.10;61.30;;;;;;5053188;28;20053;-73
2021/09/19 00:05:08;;;;;;;4.40;3.10;;;17.10;61.80;;;;;;5053267;28;20079;-73
2021/09/19 00:07:33;;;;;;;3.80;2.67;;;17.10;61.70;;;;;;5053349;28;20018;-74
2021/09/19 00:09:59;;;;;;;3.92;3.15;;;17.00;61.70;;;;;;5053221;28;20048;-75
2021/09/19 00:12:25;;;;;;;3.55;2.67;;;17.00;61.90;;;;;;5053259;28;20078;-75
2021/09/19 00:14:51;;;;;;;4.38;3.33;;;16.90;61.80;;;;;;5053141;28;20025;-73
2021/09/19 00:17:17;;;;;;;3.25;2.83;;;16.90;62.30;;;;;;5053058;28;20060;-73
2021/09/19 00:19:44;;;;;;;3.40;2.92;;;16.90;62.20;;;;;;5053082;28;20036;-74
2021/09/19 00:22:10;;;;;;;4.40;2.85;;;16.80;62.30;;;;;;5051938;28;20072;-74
2021/09/19 00:24:35;;;;;;;3.40;2.80;;;16.80;62.60;;;;;;5053038;28;20384;-74
2021/09/19 00:27:03;;;;;;;6.40;2.78;;;16.80;62.60;;;;;;5052896;28;20029;-73
2021/09/19 00:29:29;;;;;;;3.38;2.75;;;16.70;62.60;;;;;;5053001;28;20070;-73
2021/09/19 00:31:55;;;;;;;4.70;3.00;;;16.70;62.50;;;;;;5052882;28;20364;-72
2021/09/19 00:34:21;;;;;;;6.18;4.80;;;16.70;62.70;;;;;;5052861;28;20131;-73
2021/09/19 00:36:47;;;;;;;4.47;3.90;;;16.70;62.70;;;;;;5051440;28;20033;-73
2021/09/19 00:39:13;;;;;;;5.50;2.85;;;16.60;62.70;;;;;;5052735;28;20066;-73
2021/09/19 00:41:39;;;;;;;4.57;3.03;;;16.60;62.70;;;;;;5052653;28;20025;-73
2021/09/19 00:44:08;;;;;;;4.30;3.35;;;16.50;62.80;;;;;;5052765;28;20025;-73
2021/09/19 00:46:34;;;;;;;8.52;3.53;;;16.50;63.10;;;;;;5052537;28;20483;-73
2021/09/19 00:49:00;;;;;;;3.47;3.15;;;16.50;63.00;;;;;;5051534;28;20406;-73
2021/09/19 00:51:28;;;;;;;3.00;2.63;;;16.50;63.30;;;;;;5052739;28;20021;-73
2021/09/19 00:53:56;;;;;;;4.47;2.90;;;16.50;63.40;;;;;;5052877;28;20029;-73
2021/09/19 00:56:29;;;;;;;3.13;2.30;;;16.40;63.20;;;;;;5052952;28;20036;-73
2021/09/19 00:58:57;;;;;;;3.13;2.45;;;16.40;63.20;;;;;;5052970;28;20020;-73
2021/09/19 01:01:24;;;;;;;3.00;2.70;;;16.40;63.10;;;;;;5051513;28;20049;-73
2021/09/19 01:03:51;;;;;;;2.92;2.42;;;16.30;63.20;;;;;;5053518;28;20433;-73
2021/09/19 01:06:17;;;;;;;5.15;2.30;;;16.30;63.20;;;;;;5052344;28;20501;-72
2021/09/19 01:08:44;;;;;;;3.28;2.45;;;16.30;63.30;;;;;;5052360;28;20033;-74
2021/09/19 01:11:14;;;;;;;3.33;2.55;;;16.30;63.40;;;;;;5050900;28;20370;-72
2021/09/19 01:13:42;;;;;;;2.22;1.92;;;16.20;63.40;;;;;;5052227;28;20047;-73
2021/09/19 01:16:09;;;;;;;3.20;2.55;;;16.20;63.20;;;;;;5052325;28;20364;-72
2021/09/19 01:18:36;;;;;;;2.50;2.05;;;16.20;64.00;;;;;;5052309;28;20064;-73
2021/09/19 01:21:02;;;;;;;2.58;2.38;;;16.20;63.30;;;;;;5052209;28;20017;-74
2021/09/19 01:23:30;;;;;;;2.13;1.88;;;16.10;63.20;;;;;;5052131;28;20405;-73
2021/09/19 01:25:56;;;;;;;2.15;1.95;;;16.10;63.20;;;;;;5053336;28;20024;-73
2021/09/19 01:28:22;;;;;;;3.33;1.95;;;16.10;63.40;;;;;;5055949;28;20021;-74
2021/09/19 01:30:48;;;;;;;2.33;1.95;;;16.10;63.40;;;;;;5055964;28;20071;-73
2021/09/19 01:33:13;;;;;;;2.38;1.88;;;16.10;63.40;;;;;;5056024;28;20025;-74
2021/09/19 01:35:39;;;;;;;2.40;2.17;;;16.00;63.40;;;;;;5056046;28;20028;-72
2021/09/19 01:38:05;;;;;;;2.22;1.95;;;16.00;63.50;;;;;;5055878;28;20033;-73
2021/09/19 01:40:32;;;;;;;2.03;1.83;;;16.00;63.50;;;;;;5055902;28;20092;-74
2021/09/19 01:42:57;;;;;;;3.60;2.08;;;16.00;63.50;;;;;;5055767;28;20021;-73
2021/09/19 01:45:24;;;;;;;3.55;2.30;;;16.00;63.50;;;;;;5055595;28;20025;-74
2021/09/19 01:47:51;;;;;;;2.45;2.15;;;15.90;63.40;;;;;;5055235;28;20087;-75
2021/09/19 01:50:23;;;;;;;1.83;1.70;;;15.90;63.50;;;;;;5062971;28;20024;-73
2021/09/19 01:52:50;;;;;;;3.17;1.90;;;15.80;63.40;;;;;;5062463;28;20012;-73
2021/09/19 01:55:16;;;;;;;2.40;1.77;;;15.90;63.40;;;;;;5087069;28;20544;-74
2021/09/19 01:57:42;;;;;;;1.70;1.60;;;15.80;63.40;;;;;;5085518;28;20066;-73
2021/09/19 02:00:09;;;;;;;3.47;2.35;;;15.80;63.50;;;;;;5080532;28;20029;-74
2021/09/19 02:02:36;;;;;;;3.80;2.13;;;15.80;63.50;;;;;;5093317;28;20471;-74
2021/09/19 02:05:04;;;;;;;1.95;1.70;;;15.80;63.60;;;;;;5089761;28;20074;-74
2021/09/19 02:07:30;;;;;;;1.80;1.65;;;15.80;63.70;;;;;;5074766;28;20109;-74
2021/09/19 02:09:56;;;;;;;2.80;2.03;;;15.80;63.70;;;;;;5087525;28;20020;-74
2021/09/19 02:12:22;;;;;;;1.90;1.77;;;15.70;63.50;;;;;;5077125;28;20545;-74
2021/09/19 02:14:48;;;;;;;2.38;1.85;;;15.80;63.80;;;;;;5091246;28;20059;-75
2021/09/19 02:17:14;;;;;;;3.88;2.90;;;15.70;63.80;;;;;;5081728;28;20477;-74
2021/09/19 02:19:41;;;;;;;2.83;2.10;;;15.70;64.10;;;;;;5083879;28;20504;-74
2021/09/19 02:22:09;;;;;;;2.15;1.95;;;15.70;64.10;;;;;;5088863;28;20024;-74
2021/09/19 02:24:35;;;;;;;2.85;2.15;;;15.70;64.20;;;;;;5073600;28;20025;-74
2021/09/19 02:27:01;;;;;;;2.42;2.00;;;15.60;64.10;;;;;;5089348;28;20023;-74
2021/09/19 02:29:26;;;;;;;7.60;2.20;;;15.70;64.30;;;;;;5083057;28;20024;-74
2021/09/19 02:31:52;;;;;;;3.20;2.65;;;15.60;64.20;;;;;;5080949;28;20017;-73
2021/09/19 02:34:18;;;;;;;3.13;2.45;;;15.60;64.30;;;;;;5090650;28;20481;-73
2021/09/19 02:36:44;;;;;;;3.50;2.58;;;15.60;64.60;;;;;;5077062;28;20017;-74
2021/09/19 02:39:10;;;;;;;2.92;2.33;;;15.60;65.00;;;;;;5086298;28;20109;-73
2021/09/19 02:41:37;;;;;;;6.20;2.60;;;15.60;64.80;;;;;;5084128;28;20599;-73
2021/09/19 02:44:04;;;;;;;3.63;3.10;;;15.60;65.20;;;;;;5080372;28;20025;-73
2021/09/19 02:46:31;;;;;;;6.72;2.20;;;15.60;65.20;;;;;;5089324;28;20478;-72
2021/09/19 02:48:57;;;;;;;5.75;2.30;;;15.60;65.00;;;;;;5078854;28;20028;-73
2021/09/19 02:51:23;;;;;;;3.63;2.97;;;15.60;65.00;;;;;;5073462;28;20020;-73
2021/09/19 02:53:48;;;;;;;2.95;2.55;;;15.60;65.30;;;;;;5082173;28;20021;-73
2021/09/19 02:56:14;;;;;;;2.47;2.28;;;15.50;65.10;;;;;;5089494;28;20056;-73
2021/09/19 02:58:41;;;;;;;3.50;2.80;;;15.50;65.10;;;;;;5077533;28;20029;-74
2021/09/19 03:01:07;;;;;;;2.58;2.10;;;15.50;65.20;;;;;;5087696;28;20031;-73
2021/09/19 03:03:32;;;;;;;7.68;2.40;;;15.50;65.20;;;;;;5083344;28;20031;-72
2021/09/19 03:05:58;;;;;;;2.92;2.42;;;15.50;65.10;;;;;;5080546;28;20032;-73
2021/09/19 03:08:24;;;;;;;2.22;2.03;;;15.50;65.20;;;;;;5090513;28;20078;-73
2021/09/19 03:10:50;;;;;;;3.25;2.20;;;15.50;65.20;;;;;;5076135;28;20508;-73
2021/09/19 03:13:16;;;;;;;3.55;3.08;;;15.40;65.10;;;;;;5076145;28;20032;-73
2021/09/19 03:15:42;;;;;;;3.65;2.55;;;15.40;65.30;;;;;;5079483;28;20024;-74
2021/09/19 03:18:08;;;;;;;2.60;2.28;;;15.40;65.40;;;;;;5078689;28;20381;-74
2021/09/19 03:20:34;;;;;;;2.90;2.60;;;15.40;65.40;;;;;;5089888;28;20029;-73
2021/09/19 03:23:00;;;;;;;2.30;2.10;;;15.30;65.20;;;;;;5069832;28;20444;-74
2021/09/19 03:25:26;;;;;;;3.25;2.53;;;15.30;65.30;;;;;;5070428;28;20043;-73
2021/09/19 03:27:52;;;;;;;3.30;2.50;;;15.30;65.50;;;;;;5080908;28;20031;-73
2021/09/19 03:30:17;;;;;;;5.40;2.25;;;15.30;65.70;;;;;;5086746;28;20150;-73
2021/09/19 03:32:44;;;;;;;4.10;2.42;;;15.30;65.70;;;;;;5089726;28;20059;-74
2021/09/19 03:35:11;;;;;;;5.45;2.70;;;15.30;65.70;;;;;;5082997;28;20035;-73
2021/09/19 03:37:37;;;;;;;2.58;2.38;;;15.20;65.90;;;;;;5077567;28;20028;-74
2021/09/19 03:40:06;;;;;;;2.40;2.17;;;15.20;65.90;;;;;;5087429;28;20031;-74
2021/09/19 03:42:31;;;;;;;2.88;2.58;;;15.20;66.40;;;;;;5078371;28;20024;-74
2021/09/19 03:44:57;;;;;;;4.68;3.25;;;15.20;65.90;;;;;;5083527;28;20039;-74
2021/09/19 03:47:23;;;;;;;3.10;2.78;;;15.20;66.00;;;;;;5085393;28;20024;-73
2021/09/19 03:49:49;;;;;;;2.50;2.28;;;15.20;66.20;;;;;;5076368;28;20021;-73
2021/09/19 03:52:15;;;;;;;4.38;2.85;;;15.20;66.10;;;;;;5089250;28;20481;-73
2021/09/19 03:54:41;;;;;;;3.78;2.53;;;15.10;66.10;;;;;;5079330;28;20055;-73
2021/09/19 03:57:06;;;;;;;4.75;2.85;;;15.20;66.20;;;;;;5082218;28;20078;-74
2021/09/19 03:59:32;;;;;;;2.92;2.58;;;15.20;66.10;;;;;;5085755;28;20111;-74
2021/09/19 04:01:58;;;;;;;2.75;2.47;;;15.10;66.00;;;;;;5069557;28;20099;-74
2021/09/19 04:04:23;;;;;;;2.55;2.33;;;15.10;66.00;;;;;;5088205;28;20103;-73
2021/09/19 04:06:49;;;;;;;2.90;2.60;;;15.10;66.00;;;;;;5078214;28;20023;-73
2021/09/19 04:09:15;;;;;;;2.67;2.38;;;15.10;66.00;;;;;;5083911;28;20017;-73
2021/09/19 04:11:41;;;;;;;2.70;2.50;;;15.00;66.00;;;;;;5077416;28;20028;-73
2021/09/19 04:14:06;;;;;;;2.40;2.15;;;15.00;66.00;;;;;;5088962;28;20017;-73
2021/09/19 04:16:32;;;;;;;3.53;2.30;;;15.00;65.90;;;;;;5077854;28;20027;-73
2021/09/19 04:18:58;;;;;;;3.03;2.42;;;15.00;65.90;;;;;;5083237;28;20020;-73
2021/09/19 04:21:24;;;;;;;2.85;2.50;;;15.00;66.00;;;;;;5079875;28;20469;-73
2021/09/19 04:23:50;;;;;;;2.55;2.25;;;14.90;65.90;;;;;;5085150;28;20109;-73
2021/09/19 04:26:15;;;;;;;3.03;2.17;;;14.90;66.00;;;;;;5074321;28;20027;-72
2021/09/19 04:28:41;;;;;;;2.58;2.38;;;14.90;66.00;;;;;;5085762;28;20024;-73
2021/09/19 04:31:07;;;;;;;2.58;2.10;;;14.90;66.00;;;;;;5082732;28;20027;-72
2021/09/19 04:33:33;;;;;;;3.78;2.40;;;14.80;66.70;;;;;;5073785;28;20129;-73
2021/09/19 04:35:58;;;;;;;4.35;2.75;;;14.80;66.00;;;;;;5085066;28;20024;-73
2021/09/19 04:38:24;;;;;;;3.10;2.22;;;14.80;66.10;;;;;;5076948;28;20024;-72
2021/09/19 04:40:50;;;;;;;3.15;2.70;;;14.80;66.10;;;;;;5082931;28;20024;-72
2021/09/19 04:43:16;;;;;;;4.05;2.90;;;14.80;66.20;;;;;;5083759;28;20043;-72
2021/09/19 04:45:42;;;;;;;3.50;3.03;;;14.80;66.30;;;;;;5076819;28;20028;-72
2021/09/19 04:48:08;;;;;;;6.07;3.10;;;14.70;66.50;;;;;;5088630;28;20024;-72
2021/09/19 04:50:34;;;;;;;3.47;2.70;;;14.70;66.70;;;;;;5075887;28;20381;-72
2021/09/19 04:53:00;;;;;;;2.45;2.22;;;14.70;66.70;;;;;;5081414;28;20377;-73
2021/09/19 04:55:26;;;;;;;5.32;2.92;;;14.70;66.60;;;;;;5079058;28;20048;-73
2021/09/19 04:57:51;;;;;;;3.80;2.97;;;14.70;66.70;;;;;;5088633;28;20032;-72
2021/09/19 05:00:17;;;;;;;3.53;2.80;;;14.70;66.70;;;;;;5075783;28;20026;-73
2021/09/19 05:02:43;;;;;;;3.45;2.60;;;14.70;66.60;;;;;;5089329;28;20075;-73
2021/09/19 05:05:09;;;;;;;3.00;2.60;;;14.70;66.60;;;;;;5086888;28;20067;-72
2021/09/19 05:07:35;;;;;;;5.60;3.22;;;14.70;66.80;;;;;;5082106;28;20030;-72
2021/09/19 05:10:01;;;;;;;6.35;2.67;;;14.70;66.80;;;;;;5093043;28;20465;-73
2021/09/19 05:12:27;;;;;;;4.93;2.75;;;14.70;66.80;;;;;;5079580;28;20020;-72
2021/09/19 05:14:56;;;;;;;2.92;2.63;;;14.70;66.80;;;;;;5087637;28;20028;-72
2021/09/19 05:17:22;;;;;;;8.80;3.25;;;14.70;66.90;;;;;;5088506;28;20020;-73
2021/09/19 05:19:48;;;;;;;7.55;3.17;;;14.70;67.00;;;;;;5078966;28;20024;-73
2021/09/19 05:22:13;;;;;;;5.15;3.20;;;14.70;67.10;;;;;;5092110;28;20035;-72
2021/09/19 05:24:39;;;;;;;8.80;3.85;;;14.70;67.20;;;;;;5082403;28;20027;-73
2021/09/19 05:27:05;;;;;;;3.58;2.90;;;14.80;67.30;;;;;;5085726;28;20032;-72
2021/09/19 05:29:31;;;;;;;4.35;3.00;;;14.80;67.30;;;;;;5089663;28;20164;-73
2021/09/19 05:31:56;;;;;;;3.53;2.72;;;14.80;67.40;;;;;;5079099;28;20051;-73
2021/09/19 05:34:22;;;;;;;4.97;3.22;;;14.90;68.30;;;;;;5080112;28;20012;-74
2021/09/19 05:36:48;;;;;;;4.68;3.20;;;14.90;67.60;;;;;;5088010;28;20016;-73
2021/09/19 05:39:14;;;;;;;6.15;2.83;;;14.90;67.60;;;;;;5086936;28;20024;-72
2021/09/19 05:41:40;;;;;;;4.13;3.00;;;15.00;67.60;;;;;;5079387;28;20056;-72
2021/09/19 05:44:05;;;;;;;4.70;3.55;;;15.00;67.60;;;;;;5090893;28;20020;-74
2021/09/19 05:46:31;;;;;;;4.22;3.42;;;15.10;67.70;;;;;;5080792;28;20028;-73
2021/09/19 05:48:59;;;;;;;3.20;2.55;;;15.10;67.70;;;;;;5086485;28;20055;-74
2021/09/19 05:51:25;;;;;;;4.03;3.10;;;15.10;67.70;;;;;;5079358;28;20023;-73
2021/09/19 05:53:51;;;;;;;7.43;2.90;;;15.20;67.60;;;;;;5091998;28;20123;-73
2021/09/19 05:56:17;;;;;;;4.78;3.05;;;15.20;67.40;;;;;;5060896;28;20549;-73
2021/09/19 05:58:43;;;;;;;12.60;2.58;;;15.20;67.30;;;;;;5088330;28;20367;-73
2021/09/19 06:01:08;;;;;;;4.32;2.83;;;15.30;67.30;;;;;;5085715;28;20133;-72
2021/09/19 06:03:34;;;;;;;3.97;3.10;;;15.30;67.30;;;;;;5081112;28;20052;-72
2021/09/19 06:06:00;;;;;;;3.30;2.83;;;15.30;67.30;;;;;;5091598;28;20028;-74
2021/09/19 06:08:26;;;;;;;4.00;2.88;;;15.30;67.20;;;;;;5079706;28;20427;-74
2021/09/19 06:10:52;;;;;;;7.05;3.00;;;15.40;67.10;;;;;;5085679;28;20034;-74
2021/09/19 06:13:17;;;;;;;3.72;3.17;;;15.40;67.20;;;;;;5086614;28;20034;-74
2021/09/19 06:15:43;;;;;;;4.75;3.42;;;15.40;67.10;;;;;;5079584;28;20035;-74
2021/09/19 06:18:09;;;;;;;4.10;3.55;;;15.40;67.30;;;;;;5090291;28;20020;-74
2021/09/19 06:20:35;;;;;;;3.28;2.97;;;15.50;67.50;;;;;;5066376;28;20389;-73
2021/09/19 06:23:00;;;;;;;6.20;3.58;;;15.50;67.50;;;;;;5079603;28;20066;-74
2021/09/19 06:25:26;;;;;;;3.03;2.67;;;15.60;68.20;;;;;;5080753;28;20036;-74
2021/09/19 06:27:52;;;;;;;4.05;2.92;;;15.60;67.30;;;;;;5078281;28;20020;-74
2021/09/19 06:30:18;;;;;;;3.75;2.90;;;15.60;67.30;;;;;;5089800;28;20350;-74
2021/09/19 06:32:43;;;;;;;2.95;2.55;;;15.60;67.20;;;;;;5081922;28;20385;-74
2021/09/19 06:35:10;;;;;;;3.70;3.10;;;15.70;67.20;;;;;;5078944;28;20043;-74
2021/09/19 06:37:36;;;;;;;4.88;3.33;;;15.70;67.20;;;;;;5080103;28;20512;-73
2021/09/19 06:40:02;;;;;;;4.18;3.35;;;15.80;67.20;;;;;;5089887;28;20059;-73
2021/09/19 06:42:28;;;;;;;3.88;3.13;;;15.80;67.30;;;;;;5079415;28;20043;-73
2021/09/19 06:44:54;;;;;;;3.95;3.10;;;15.90;67.40;;;;;;5084423;28;20035;-73
2021/09/19 06:47:20;;;;;;;6.95;3.17;;;15.90;67.40;;;;;;5086424;28;20024;-74
2021/09/19 06:49:46;;;;;;;5.03;3.78;;;16.00;67.50;;;;;;5077202;28;20024;-74
2021/09/19 06:52:12;;;;;;;5.10;3.70;;;16.10;67.60;;;;;;5080816;28;20036;-74
2021/09/19 06:54:38;;;;;;;4.63;3.72;;;16.20;67.50;;;;;;5086712;28;20025;-73
2021/09/19 06:57:04;;;;;;;4.65;3.63;;;16.20;67.90;;;;;;5083971;28;20027;-73
2021/09/19 06:59:29;;;;;;;3.80;3.40;;;16.30;66.90;;;;;;5080648;28;20029;-74
2021/09/19 07:01:55;;;;;;;4.05;3.55;;;16.40;66.60;;;;;;5090476;28;20044;-74
2021/09/19 07:04:21;;;;;;;3.17;2.85;;;16.50;66.60;;;;;;5077940;28;20070;-74
2021/09/19 07:06:47;;;;;;;5.53;3.20;;;16.50;66.50;;;;;;5086348;28;20024;-72
2021/09/19 07:09:13;;;;;;;4.65;4.15;;;16.60;66.50;;;;;;5085031;28;20027;-73
2021/09/19 07:11:39;;;;;;;11.88;7.03;;;16.70;66.40;;;;;;5078821;28;20028;-73
2021/09/19 07:14:04;;;;;;;12.38;7.30;;;16.70;66.00;;;;;;5088701;28;20028;-74
2021/09/19 07:16:30;;;;;;;12.48;7.22;;;16.80;65.80;;;;;;5079079;28;20024;-73
2021/09/19 07:18:56;;;;;;;12.43;6.47;;;16.90;65.70;;;;;;5077454;28;20369;-75
2021/09/19 07:21:23;;;;;;;14.73;9.07;;;17.00;65.60;;;;;;5080971;28;20028;-74
2021/09/19 07:23:49;;;;;;;16.95;9.40;;;17.10;65.50;;;;;;5089236;28;20511;-74
2021/09/19 07:26:14;;;;;;;18.60;8.55;;;17.20;65.00;;;;;;5076819;28;20396;-74
2021/09/19 07:28:41;;;;;;;11.45;6.15;;;17.30;64.40;;;;;;5086848;28;20016;-74
2021/09/19 07:31:06;;;;;;;10.50;6.05;;;17.30;64.50;;;;;;5083615;28;20024;-74
2021/09/19 07:33:32;;;;;;;10.35;6.13;;;17.40;64.20;;;;;;5074208;28;20158;-74
2021/09/19 07:35:58;;;;;;;9.63;5.45;;;17.50;64.00;;;;;;5087215;28;20065;-73
2021/09/19 07:38:25;;;;;;;6.95;4.75;;;17.60;63.80;;;;;;5077768;28;20020;-74
2021/09/19 07:40:51;;;;;;;5.65;4.05;;;17.70;63.80;;;;;;5085443;28;20087;-74
2021/09/19 07:43:17;;;;;;;6.88;4.57;;;17.80;63.50;;;;;;5084858;28;20032;-75
2021/09/19 07:45:43;;;;;;;10.52;4.35;;;17.90;62.90;;;;;;5077461;28;20078;-74
2021/09/19 07:48:12;;;;;;;7.03;4.78;;;18.00;62.70;;;;;;5089530;28;20469;-75
2021/09/19 07:50:39;;;;;;;10.15;5.38;;;18.10;62.50;;;;;;5074421;28;20024;-74
2021/09/19 07:53:05;;;;;;;9.20;5.63;;;18.30;62.40;;;;;;5073365;28;20020;-74
2021/09/19 07:55:32;;;;;;;10.10;5.95;;;18.40;61.40;;;;;;5079205;28;20061;-74
2021/09/19 07:57:58;;;;;;;11.55;5.28;;;18.50;60.60;;;;;;5089488;28;20024;-74
2021/09/19 08:00:24;;;;;;;8.52;5.55;;;18.60;60.20;;;;;;5077237;28;20537;-74
2021/09/19 08:02:50;;;;;;;8.43;5.25;;;18.80;60.50;;;;;;5084550;28;20052;-74
2021/09/19 08:05:16;;;;;;;9.52;5.78;;;19.00;60.10;;;;;;5083040;28;20534;-74
2021/09/19 08:07:43;;;;;;;10.45;5.45;;;19.10;59.90;;;;;;5077654;28;20478;-74
2021/09/19 08:10:10;;;;;;;5.50;4.22;;;19.30;59.40;;;;;;5089170;28;20362;-75
2021/09/19 08:12:36;;;;;;;9.70;5.25;;;19.50;59.40;;;;;;5077634;28;20032;-74
2021/09/19 08:15:03;;;;;;;8.15;4.82;;;19.70;58.80;;;;;;5081980;28;20039;-74
2021/09/19 08:17:28;;;;;;;10.15;5.00;;;19.80;58.70;;;;;;5082681;28;20024;-74
2021/09/19 08:19:54;;;;;;;6.93;4.68;;;20.10;58.00;;;;;;5074742;28;20039;-75
2021/09/19 08:22:21;;;;;;;8.75;4.75;;;20.20;57.40;;;;;;5059562;28;20130;-74
2021/09/19 08:24:47;;;;;;;7.85;5.00;;;20.40;56.70;;;;;;5071445;28;20032;-75
2021/09/19 08:27:12;;;;;;;10.25;4.72;;;20.50;56.60;;;;;;5072921;28;20156;-75
2021/09/19 08:29:38;;;;;;;7.93;5.10;;;20.70;56.50;;;;;;5054016;28;20497;-75
2021/09/19 08:32:04;;;;;;;6.70;4.03;;;20.80;56.30;;;;;;5051812;28;20021;-75
2021/09/19 08:34:31;;;;;;;6.35;3.60;;;20.80;56.20;;;;;;5051243;28;20514;-75
2021/09/19 08:36:57;;;;;;;4.75;2.95;;;20.90;54.70;;;;;;5051165;28;20099;-75
2021/09/19 08:39:22;;;;;;;2.20;2.00;;;21.00;54.10;;;;;;5051688;28;20471;-74
2021/09/19 08:41:50;;;;;;;3.03;2.45;;;21.00;54.50;;;;;;5052872;28;20495;-75
2021/09/19 08:44:18;;;;;;;2.83;1.80;;;21.10;54.20;;;;;;5071642;28;20024;-74
2021/09/19 08:46:47;;;;;;;2.92;2.45;;;21.10;54.00;;;;;;5072752;28;20021;-75
2021/09/19 08:49:16;;;;;;;2.42;1.75;;;21.10;53.60;;;;;;5072808;28;20031;-74
2021/09/19 08:51:43;;;;;;;15.73;7.32;;;21.20;53.80;;;;;;5071498;28;20056;-75
2021/09/19 08:54:09;;;;;;;6.45;4.45;;;21.20;53.90;;;;;;5071493;28;20410;-75
2021/09/19 08:56:35;;;;;;;4.47;3.25;;;21.20;53.70;;;;;;5072875;28;20028;-75
2021/09/19 08:59:02;;;;;;;2.72;2.53;;;21.30;53.50;;;;;;5072783;28;20029;-75
2021/09/19 09:01:28;;;;;;;2.38;1.80;;;21.30;53.30;;;;;;5071267;28;20052;-75
2021/09/19 09:04:05;;;;;;;1.70;1.40;;;21.30;53.20;;;;;;5058447;28;20423;-76
2021/09/19 09:06:38;;;;;;;2.00;1.83;;;21.20;52.50;;;;;;5051281;28;20162;-75
2021/09/19 09:09:17;;;;;;;1.60;1.50;;;21.20;52.10;;;;;;5051455;28;20021;-73
2021/09/19 09:11:59;;;;;;;1.88;1.50;;;21.20;52.20;;;;;;5052619;28;20028;-74
2021/09/19 09:14:25;;;;;;;2.08;1.60;;;21.20;52.40;;;;;;5063785;28;20029;-74
2021/09/19 09:16:51;;;;;;;1.48;1.38;;;21.20;52.70;;;;;;5051279;28;20501;-74
2021/09/19 09:19:17;;;;;;;1.48;1.38;;;21.20;51.30;;;;;;5052523;28;20033;-75
2021/09/19 09:21:44;;;;;;;1.73;1.63;;;21.20;51.50;;;;;;5052589;28;20029;-74
2021/09/19 09:24:15;;;;;;;1.92;1.77;;;21.20;51.00;;;;;;5052449;28;20102;-74
2021/09/19 09:26:42;;;;;;;2.08;1.83;;;21.20;50.80;;;;;;5052323;28;20070;-76
2021/09/19 09:29:14;;;;;;;2.30;1.75;;;21.10;50.50;;;;;;5051195;28;20033;-75
2021/09/19 09:31:48;;;;;;;4.60;1.73;;;21.10;50.10;;;;;;5052402;28;20466;-75
2021/09/19 09:34:20;;;;;;;1.77;1.60;;;21.10;50.30;;;;;;5052227;28;20025;-75
2021/09/19 09:36:53;;;;;;;1.60;1.50;;;21.20;50.90;;;;;;5052391;28;20340;-74
2021/09/19 09:39:27;;;;;;;1.60;1.20;;;21.20;51.40;;;;;;5052486;28;20104;-74
2021/09/19 09:41:55;;;;;;;1.65;1.55;;;21.30;51.40;;;;;;5051039;28;20044;-74
2021/09/19 09:44:31;;;;;;;1.75;1.33;;;21.30;51.20;;;;;;5051232;28;20382;-75
2021/09/19 09:47:00;;;;;;;3.33;1.58;;;21.40;51.30;;;;;;5053554;28;20025;-74
2021/09/19 09:49:43;;;;;;;2.55;2.00;;;21.40;51.00;;;;;;5059053;28;20037;-75
2021/09/19 09:52:10;;;;;;;1.75;1.42;;;21.50;51.20;;;;;;5073221;28;20143;-75
2021/09/19 09:55:03;;;;;;;2.67;1.90;;;21.50;51.20;;;;;;5075518;28;20401;-75
2021/09/19 09:57:34;;;;;;;2.05;1.60;;;21.60;51.50;;;;;;5069897;28;20163;-75
2021/09/19 10:00:21;;;;;;;1.98;1.70;;;21.80;50.40;;;;;;5075702;28;20078;-76
2021/09/19 10:02:51;;;;;;;2.13;1.48;;;21.90;49.60;;;;;;5055627;28;20041;-75
2021/09/19 10:05:19;;;;;;;1.50;1.30;;;22.10;48.80;;;;;;5055567;28;20039;-75
2021/09/19 10:07:46;;;;;;;1.30;1.20;;;22.20;48.20;;;;;;5069320;28;20021;-74
2021/09/19 10:10:18;;;;;;;1.67;1.40;;;22.30;48.90;;;;;;5075468;28;20025;-74
2021/09/19 10:12:46;;;;;;;2.47;1.67;;;22.50;48.20;;;;;;5074751;28;20127;-74
2021/09/19 10:15:12;;;;;;;2.17;1.45;;;22.70;48.00;;;;;;5064825;28;20113;-75
2021/09/19 10:17:37;;;;;;;1.45;1.33;;;22.90;46.50;;;;;;5074148;28;20027;-74
2021/09/19 10:20:09;;;;;;;1.75;1.30;;;23.10;46.20;;;;;;5075216;28;20025;-76
2021/09/19 10:23:01;;;;;;;1.50;1.10;;;23.30;46.20;;;;;;5083716;28;20452;-74
2021/09/19 10:25:36;;;;;;;1.23;1.10;;;23.40;46.60;;;;;;5089637;28;20041;-74
2021/09/19 10:28:21;;;;;;;1.05;0.95;;;23.60;45.90;;;;;;5067180;28;20017;-75
2021/09/19 10:31:12;;;;;;;1.80;1.10;;;23.70;46.10;;;;;;5059042;28;20028;-74
2021/09/19 10:33:45;;;;;;;3.47;1.25;;;23.80;46.40;;;;;;5058102;28;20511;-74
2021/09/19 10:36:40;;;;;;;2.00;1.20;;;23.90;45.70;;;;;;5066258;28;20040;-74
2021/09/19 10:39:17;;;;;;;1.20;1.10;;;24.00;45.70;;;;;;5074925;28;20033;-75
2021/09/19 10:42:06;;;;;;;1.58;1.00;;;24.10;44.10;;;;;;5074667;28;20025;-74
2021/09/19 10:44:44;;;;;;;1.10;1.00;;;24.20;44.70;;;;;;5073558;28;20025;-75
2021/09/19 10:47:26;;;;;;;1.15;1.05;;;24.30;43.50;;;;;;5056019;28;20028;-74
2021/09/19 10:50:12;;;;;;;1.73;1.08;;;24.20;42.60;;;;;;5062341;28;20453;-74
2021/09/19 10:52:43;;;;;;;1.42;1.08;;;24.20;43.30;;;;;;5068100;28;20063;-74
2021/09/19 10:55:58;;;;;;;1.15;0.85;;;24.20;42.10;;;;;;5074718;28;20020;-74
2021/09/19 10:58:30;;;;;;;1.50;0.95;;;24.10;43.20;;;;;;5058127;28;20041;-74
2021/09/19 11:01:19;;;;;;;1.17;0.90;;;23.90;41.80;;;;;;5061605;28;20024;-74
2021/09/19 11:04:10;;;;;;;1.13;1.02;;;23.80;42.60;;;;;;5074184;28;20489;-75
2021/09/19 11:06:41;;;;;;;1.35;1.20;;;23.70;43.00;;;;;;5073649;28;20040;-73
2021/09/19 11:09:24;;;;;;;1.33;1.10;;;23.60;42.50;;;;;;5074322;28;20029;-74
2021/09/19 11:12:10;;;;;;;0.95;0.82;;;23.50;42.60;;;;;;5068286;28;20541;-74
2021/09/19 11:15:02;;;;;;;1.17;1.08;;;23.40;43.80;;;;;;5059822;28;20033;-74
2021/09/19 11:17:31;;;;;;;1.20;1.10;;;23.30;43.90;;;;;;5060448;28;20359;-74
2021/09/19 11:20:16;;;;;;;0.98;0.80;;;23.30;44.00;;;;;;5057880;28;20497;-74
2021/09/19 11:22:51;;;;;;;1.00;0.90;;;23.30;44.60;;;;;;5053268;28;20070;-74
2021/09/19 11:25:18;;;;;;;1.58;1.20;;;23.30;44.10;;;;;;5052888;28;20420;-74
2021/09/19 11:27:46;;;;;;;1.10;1.00;;;23.30;43.40;;;;;;5053218;28;20400;-74
2021/09/19 11:30:17;;;;;;;1.15;1.00;;;23.20;43.40;;;;;;5067922;28;20023;-75
2021/09/19 11:32:44;;;;;;;1.27;1.08;;;23.20;43.00;;;;;;5073731;28;20016;-74
2021/09/19 11:35:11;;;;;;;1.13;1.00;;;23.20;43.00;;;;;;5063940;28;20107;-75
2021/09/19 11:37:37;;;;;;;1.13;1.02;;;23.20;42.70;;;;;;5054076;28;20434;-75
2021/09/19 11:40:09;;;;;;;2.83;1.58;;;23.20;43.40;;;;;;5056895;28;20031;-74
2021/09/19 11:42:36;;;;;;;2.33;1.80;;;23.30;44.30;;;;;;5060921;28;20053;-74
2021/09/19 11:45:10;;;;;;;1.30;1.20;;;23.40;44.10;;;;;;5056230;28;20033;-74
2021/09/19 11:47:38;;;;;;;;;;;23.50;43.10;;;;;;5052229;28;20072;-74
2021/09/19 11:50:06;;;;;;;2.30;1.50;;;23.60;44.80;;;;;;5053615;28;19904;-75
2021/09/19 11:52:32;;;;;;;1.90;1.10;;;23.80;42.80;;;;;;5057318;28;20017;-74
2021/09/19 11:54:58;;;;;;;1.25;1.15;;;23.90;41.70;;;;;;5056919;28;20029;-76
2021/09/19 11:57:23;;;;;;;1.58;1.42;;;24.00;41.70;;;;;;5056341;28;20036;-74
2021/09/19 11:59:49;;;;;;;1.52;1.20;;;24.20;41.90;;;;;;5071236;28;20028;-74
2021/09/19 12:02:17;;;;;;;2.13;1.60;;;24.30;41.60;;;;;;5061727;28;20119;-74
2021/09/19 12:04:44;;;;;;;1.60;1.50;;;24.50;41.70;;;;;;5073043;28;20029;-74
2021/09/19 12:07:12;;;;;;;2.88;2.20;;;24.60;41.40;;;;;;5054294;28;20017;-74
2021/09/19 12:09:49;;;;;;;3.05;1.77;;;24.70;41.30;;;;;;5053012;28;20017;-74
2021/09/19 12:12:16;;;;;;;2.10;1.45;;;24.80;41.60;;;;;;5053266;28;20021;-74
2021/09/19 12:14:47;;;;;;;2.67;1.70;;;25.00;41.30;;;;;;5065943;28;20028;-74
2021/09/19 12:17:14;;;;;;;7.50;1.67;;;25.10;41.10;;;;;;5063446;28;20092;-74
2021/09/19 12:19:44;;;;;;;11.45;2.97;;;25.10;40.90;;;;;;5063765;28;20029;-69
2021/09/19 12:22:21;;;;;;;1.25;1.15;;;25.20;40.60;;;;;;5073406;28;20542;-70
2021/09/19 12:24:56;;;;;;;1.15;1.05;;;25.30;39.40;;;;;;5063917;28;20059;-69
2021/09/19 12:27:26;;;;;;;1.65;0.88;;;25.30;39.00;;;;;;5065441;28;20478;-69
2021/09/19 12:29:59;;;;;;;1.70;1.20;;;25.20;38.90;;;;;;5068012;28;20025;-69
2021/09/19 12:32:35;;;;;;;4.22;1.17;;;25.10;39.30;;;;;;5070982;28;20056;-69
2021/09/19 12:35:13;;;;;;;0.95;0.90;;;25.10;39.30;;;;;;5061484;28;20028;-69
2021/09/19 12:37:47;;;;;;;2.05;1.58;;;25.00;40.00;;;;;;5073719;28;20113;-69
2021/09/19 12:40:17;;;;;;;3.22;2.30;;;24.90;40.80;;;;;;5055663;28;20029;-70
2021/09/19 12:42:44;;;;;;;3.30;2.35;;;24.90;41.00;;;;;;5051625;28;20067;-70
2021/09/19 12:45:13;;;;;;;2.80;2.20;;;24.90;41.30;;;;;;5058185;28;20050;-68
2021/09/19 12:47:39;;;;;;;2.60;1.85;;;24.80;41.50;;;;;;5054526;28;20029;-69
2021/09/19 12:50:10;;;;;;;3.13;1.83;;;24.80;41.70;;;;;;5051455;28;20014;-70